Time;durP1;ratioP1;P1;durP2;ratioP2;P2;SDS_P1;SDS_P2;PMS_P1;PMS_P2;Temp;Humidity;BMP_temperature;BMP_pressure;BME280_temperature;BME280_humidity;BME280_pressure;Samples;Min_cycle;Max_cycle;Signal;HPM_P1;HPM_P2
2022/06/22 00:02:19;;;;;;;8.25;4.00;;;16.30;35.80;;;;;;5072820;28;20816;-77
2022/06/22 00:05:12;;;;;;;8.02;3.88;;;16.20;36.20;;;;;;5054127;28;21014;-76
2022/06/22 00:07:42;;;;;;;8.85;3.90;;;16.20;36.40;;;;;;5071416;28;20391;-77
2022/06/22 00:10:14;;;;;;;8.20;4.28;;;16.20;36.50;;;;;;5072256;28;20453;-76
2022/06/22 00:12:39;;;;;;;12.02;4.68;;;16.10;36.80;;;;;;5071794;28;20946;-77
2022/06/22 00:15:35;;;;;;;7.15;3.70;;;16.10;37.10;;;;;;5073282;28;20400;-75
2022/06/22 00:18:19;;;;;;;9.73;3.67;;;15.90;38.20;;;;;;5072158;28;20749;-77
2022/06/22 00:20:50;;;;;;;6.82;3.50;;;15.90;38.20;;;;;;5053026;28;20780;-77
2022/06/22 00:23:22;;;;;;;8.70;3.50;;;16.00;38.10;;;;;;5071612;28;20396;-77
2022/06/22 00:25:48;;;;;;;11.18;4.00;;;16.00;38.30;;;;;;5070647;28;20442;-77
2022/06/22 00:28:31;;;;;;;8.18;3.67;;;16.00;38.40;;;;;;5072257;28;20392;-77
2022/06/22 00:31:20;;;;;;;10.02;4.05;;;16.00;39.70;;;;;;5068688;28;20407;-77
2022/06/22 00:34:10;;;;;;;7.72;4.30;;;15.90;40.80;;;;;;5071956;28;20729;-74
2022/06/22 00:36:42;;;;;;;9.75;3.90;;;16.00;43.10;;;;;;5070229;28;20395;-74
2022/06/22 00:39:18;;;;;;;11.30;4.10;;;16.00;45.90;;;;;;5053501;28;20396;-74
2022/06/22 00:42:16;;;;;;;7.45;3.97;;;15.90;48.30;;;;;;5069423;28;20461;-73
2022/06/22 00:44:46;;;;;;;7.85;3.90;;;15.80;49.80;;;;;;5030097;28;20402;-74
2022/06/22 00:47:53;;;;;;;7.10;4.45;;;15.80;49.00;;;;;;5071043;28;20797;-74
2022/06/22 00:50:29;;;;;;;10.93;4.57;;;15.60;48.60;;;;;;5069856;28;20395;-74
2022/06/22 00:53:05;;;;;;;8.90;5.10;;;15.50;50.30;;;;;;5070704;28;20458;-75
2022/06/22 00:55:39;;;;;;;8.98;4.13;;;15.40;48.10;;;;;;5052920;28;20400;-75
2022/06/22 00:58:21;;;;;;;7.70;4.47;;;15.30;49.50;;;;;;5070939;28;20804;-74
2022/06/22 01:01:00;;;;;;;9.60;4.60;;;15.10;51.40;;;;;;5069667;28;20414;-75
2022/06/22 01:03:41;;;;;;;11.35;4.45;;;15.10;51.60;;;;;;5070425;28;20423;-74
2022/06/22 01:06:31;;;;;;;7.97;4.13;;;15.10;51.20;;;;;;5065981;28;20399;-72
2022/06/22 01:09:18;;;;;;;9.05;4.65;;;15.10;51.00;;;;;;5070540;28;20403;-74
2022/06/22 01:12:17;;;;;;;10.68;4.20;;;14.80;52.70;;;;;;5070051;28;20468;-74
2022/06/22 01:14:49;;;;;;;8.60;4.72;;;14.70;54.70;;;;;;5052207;28;20468;-74
2022/06/22 01:17:25;;;;;;;9.75;4.20;;;15.00;53.70;;;;;;5070572;28;20758;-74
2022/06/22 01:20:05;;;;;;;8.23;4.27;;;15.00;52.40;;;;;;5069601;28;20941;-74
2022/06/22 01:22:45;;;;;;;5.93;4.80;;;15.00;52.10;;;;;;5069918;28;20391;-75
2022/06/22 01:25:30;;;;;;;8.80;4.80;;;15.00;52.50;;;;;;5055003;28;20398;-74
2022/06/22 01:27:55;;;;;;;9.18;4.60;;;14.90;53.00;;;;;;5073785;28;20388;-74
2022/06/22 01:30:37;;;;;;;9.13;4.95;;;14.80;55.10;;;;;;5072520;28;20399;-74
2022/06/22 01:33:20;;;;;;;11.80;4.53;;;14.70;55.90;;;;;;5070588;28;20410;-74
2022/06/22 01:35:50;;;;;;;6.88;3.80;;;14.60;56.80;;;;;;5070140;28;20395;-74
2022/06/22 01:38:29;;;;;;;9.38;4.82;;;14.40;59.20;;;;;;5070232;28;20395;-75
2022/06/22 01:41:25;;;;;;;9.93;5.30;;;14.20;61.70;;;;;;5069880;28;20509;-74
2022/06/22 01:44:11;;;;;;;11.25;4.85;;;14.00;64.20;;;;;;5053675;28;20487;-74
2022/06/22 01:47:10;;;;;;;12.25;4.70;;;14.20;64.20;;;;;;5070595;28;20797;-74
2022/06/22 01:49:46;;;;;;;8.43;5.03;;;14.30;61.70;;;;;;5081053;28;20410;-75
2022/06/22 01:52:34;;;;;;;12.35;5.22;;;14.40;60.10;;;;;;5069631;28;20388;-72
2022/06/22 01:55:08;;;;;;;9.57;4.78;;;14.40;58.70;;;;;;5088751;28;20402;-75
2022/06/22 01:57:51;;;;;;;12.30;4.80;;;14.50;56.50;;;;;;5084735;28;20384;-74
2022/06/22 02:00:19;;;;;;;8.48;4.65;;;14.50;55.50;;;;;;5081650;28;20909;-75
2022/06/22 02:03:13;;;;;;;9.80;4.63;;;14.50;54.40;;;;;;5080479;28;20403;-75
2022/06/22 02:06:00;;;;;;;8.10;4.63;;;14.40;54.40;;;;;;5080837;28;20387;-74
2022/06/22 02:08:31;;;;;;;11.77;4.30;;;14.30;54.50;;;;;;5082073;28;20697;-75
2022/06/22 02:11:17;;;;;;;11.23;4.40;;;14.40;53.50;;;;;;5080484;28;20387;-74
2022/06/22 02:13:58;;;;;;;9.45;4.32;;;14.50;52.20;;;;;;5075196;28;20843;-74
2022/06/22 02:16:23;;;;;;;8.43;4.28;;;14.40;53.70;;;;;;5074694;28;20461;-74
2022/06/22 02:18:56;;;;;;;11.07;4.75;;;14.60;51.80;;;;;;5074250;28;20395;-74
2022/06/22 02:21:31;;;;;;;7.45;4.75;;;14.60;50.50;;;;;;5073336;28;20840;-74
2022/06/22 02:24:27;;;;;;;7.93;4.30;;;14.50;51.10;;;;;;5073959;28;20395;-73
2022/06/22 02:27:13;;;;;;;11.70;4.18;;;14.50;51.70;;;;;;5072841;28;20445;-76
2022/06/22 02:29:43;;;;;;;8.45;4.60;;;14.40;52.40;;;;;;5073515;28;20395;-77
2022/06/22 02:32:13;;;;;;;6.93;4.10;;;14.20;53.40;;;;;;5079511;28;20396;-76
2022/06/22 02:34:41;;;;;;;8.73;4.50;;;14.20;54.80;;;;;;5079078;28;20783;-76
2022/06/22 02:37:08;;;;;;;9.85;4.60;;;14.00;56.40;;;;;;5060603;28;20406;-78
2022/06/22 02:39:39;;;;;;;7.05;5.03;;;13.80;59.00;;;;;;5056262;28;20440;-76
2022/06/22 02:44:50;;;;;;;10.95;4.60;;;13.90;60.90;;;;;;5072788;28;20387;-76
2022/06/22 02:47:22;;;;;;;9.18;4.60;;;14.10;58.50;;;;;;5055260;28;20428;-76
2022/06/22 02:50:22;;;;;;;9.03;4.40;;;14.00;58.50;;;;;;5055152;28;20440;-77
2022/06/22 02:52:55;;;;;;;9.55;4.75;;;14.10;57.70;;;;;;5072410;28;20407;-76
2022/06/22 02:55:24;;;;;;;11.70;5.10;;;14.10;57.90;;;;;;5073153;28;20822;-76
2022/06/22 02:57:53;;;;;;;8.52;4.70;;;13.90;58.50;;;;;;5072760;28;20406;-76
2022/06/22 03:00:32;;;;;;;13.20;7.77;;;13.90;59.80;;;;;;5072839;28;20427;-77
2022/06/22 03:03:10;;;;;;;9.05;5.13;;;13.80;60.10;;;;;;5072150;28;20404;-77
2022/06/22 03:05:38;;;;;;;6.77;4.67;;;13.90;60.20;;;;;;5072828;28;20745;-77
2022/06/22 03:08:05;;;;;;;12.68;4.93;;;13.80;60.40;;;;;;5066645;28;20796;-77
2022/06/22 03:10:59;;;;;;;11.77;4.55;;;13.80;60.90;;;;;;5072811;28;20434;-77
2022/06/22 03:13:29;;;;;;;6.85;4.30;;;13.90;59.90;;;;;;5066373;28;20470;-76
2022/06/22 03:15:56;;;;;;;9.90;4.90;;;13.80;59.40;;;;;;5071535;28;20471;-76
2022/06/22 03:18:28;;;;;;;9.15;4.90;;;13.80;58.70;;;;;;5072509;28;20396;-77
2022/06/22 03:21:01;;;;;;;7.68;4.80;;;13.80;59.50;;;;;;5070522;28;20399;-77
2022/06/22 03:23:45;;;;;;;9.05;4.90;;;13.80;61.50;;;;;;5072530;28;20909;-77
2022/06/22 03:26:35;;;;;;;16.17;7.95;;;13.80;61.30;;;;;;5072614;28;20391;-76
2022/06/22 03:29:05;;;;;;;15.10;7.80;;;13.90;62.50;;;;;;5072539;28;20830;-77
2022/06/22 03:31:42;;;;;;;12.63;6.40;;;14.00;60.90;;;;;;5072199;28;20410;-77
2022/06/22 03:34:19;;;;;;;11.85;5.20;;;14.00;59.80;;;;;;5066659;28;20482;-76
2022/06/22 03:37:08;;;;;;;10.88;5.18;;;13.90;61.10;;;;;;5072047;28;20396;-76
2022/06/22 03:39:38;;;;;;;11.82;6.20;;;13.80;63.00;;;;;;5077658;28;20457;-77
2022/06/22 03:42:12;;;;;;;13.90;5.30;;;13.70;64.20;;;;;;5078847;28;20379;-75
2022/06/22 03:44:54;;;;;;;10.77;5.20;;;13.70;61.80;;;;;;5077442;28;20392;-76
2022/06/22 03:47:34;;;;;;;12.73;5.60;;;13.80;61.10;;;;;;5078904;28;20426;-75
2022/06/22 03:50:12;;;;;;;9.52;5.30;;;13.90;59.80;;;;;;5064645;28;20403;-77
2022/06/22 03:52:37;;;;;;;11.63;4.93;;;13.80;59.40;;;;;;5078203;28;20396;-77
2022/06/22 03:55:17;;;;;;;12.13;5.45;;;13.90;58.60;;;;;;5072913;28;20870;-77
2022/06/22 03:57:45;;;;;;;14.50;5.77;;;14.00;57.20;;;;;;5071920;28;20462;-77
2022/06/22 04:00:13;;;;;;;9.87;4.90;;;14.10;56.00;;;;;;5072553;28;20408;-76
2022/06/22 04:02:40;;;;;;;11.38;5.30;;;14.10;55.80;;;;;;5071919;28;20956;-77
2022/06/22 04:05:06;;;;;;;7.70;4.93;;;14.10;56.30;;;;;;5067669;28;20506;-76
2022/06/22 04:07:36;;;;;;;13.63;5.65;;;14.10;56.70;;;;;;5056671;28;20891;-77
2022/06/22 04:10:03;;;;;;;8.90;5.30;;;14.00;57.00;;;;;;5072697;28;20396;-77
2022/06/22 04:12:50;;;;;;;11.60;5.47;;;14.00;58.40;;;;;;5073122;28;20395;-76
2022/06/22 04:15:35;;;;;;;10.55;5.28;;;14.00;58.00;;;;;;5073453;28;20407;-77
2022/06/22 04:18:16;;;;;;;11.93;5.00;;;14.10;57.50;;;;;;5072439;28;20396;-77
2022/06/22 04:20:54;;;;;;;8.77;4.70;;;14.20;56.40;;;;;;5071755;28;20403;-76
2022/06/22 04:23:27;;;;;;;8.95;5.13;;;14.50;52.60;;;;;;5072435;28;20767;-77
2022/06/22 04:25:57;;;;;;;8.82;4.75;;;14.80;49.40;;;;;;5071250;28;20431;-76
2022/06/22 04:28:25;;;;;;;9.30;5.20;;;14.80;49.30;;;;;;5073136;28;20399;-76
2022/06/22 04:30:52;;;;;;;7.45;4.85;;;14.80;50.20;;;;;;5058012;28;20457;-77
2022/06/22 04:33:27;;;;;;;9.60;5.43;;;15.10;48.20;;;;;;5072784;28;20398;-76
2022/06/22 04:36:05;;;;;;;12.35;4.95;;;15.40;44.80;;;;;;5070771;28;20876;-76
2022/06/22 04:38:41;;;;;;;11.90;5.40;;;15.60;43.40;;;;;;5070785;28;20427;-76
2022/06/22 04:41:33;;;;;;;10.30;5.28;;;15.60;43.40;;;;;;5070377;28;20418;-77
2022/06/22 04:44:12;;;;;;;11.82;5.50;;;15.50;43.00;;;;;;5071083;28;20392;-75
2022/06/22 04:46:41;;;;;;;11.25;5.68;;;15.40;43.40;;;;;;5072577;28;20407;-76
2022/06/22 04:49:31;;;;;;;10.57;5.00;;;15.40;43.70;;;;;;5075265;28;20379;-79
2022/06/22 04:52:01;;;;;;;11.93;5.53;;;15.50;44.10;;;;;;5055548;28;20931;-72
2022/06/22 04:54:31;;;;;;;10.75;5.20;;;15.40;43.60;;;;;;5073282;28;20407;-77
2022/06/22 04:57:04;;;;;;;11.80;5.70;;;15.50;43.50;;;;;;5071066;28;20400;-72
2022/06/22 04:59:31;;;;;;;11.98;5.30;;;15.60;43.40;;;;;;5069535;28;20460;-72
2022/06/22 05:02:01;;;;;;;13.00;5.60;;;15.50;43.40;;;;;;5071840;28;20971;-72
2022/06/22 05:04:39;;;;;;;12.93;5.70;;;15.70;43.20;;;;;;5051997;28;20575;-72
2022/06/22 05:07:14;;;;;;;11.27;5.68;;;15.60;42.80;;;;;;5068827;28;20410;-72
2022/06/22 05:09:45;;;;;;;12.60;5.35;;;15.60;43.50;;;;;;5067329;28;20477;-73
2022/06/22 05:12:14;;;;;;;11.35;5.30;;;15.60;44.60;;;;;;5068960;28;20431;-74
2022/06/22 05:14:41;;;;;;;12.68;5.22;;;15.70;43.00;;;;;;5068838;28;20403;-73
2022/06/22 05:17:32;;;;;;;18.95;5.93;;;15.80;42.50;;;;;;5069163;28;20483;-73
2022/06/22 05:20:12;;;;;;;11.93;5.82;;;15.80;42.30;;;;;;5067803;28;20467;-73
2022/06/22 05:22:38;;;;;;;18.98;5.53;;;15.90;42.10;;;;;;5067143;28;20506;-72
2022/06/22 05:25:06;;;;;;;17.00;6.60;;;16.30;40.50;;;;;;5070523;28;20423;-72
2022/06/22 05:27:48;;;;;;;14.80;6.30;;;16.50;39.20;;;;;;5068652;28;20875;-72
2022/06/22 05:30:14;;;;;;;12.00;5.35;;;16.40;39.50;;;;;;5068484;28;20419;-71
2022/06/22 05:32:45;;;;;;;18.98;5.50;;;16.40;39.60;;;;;;5068517;28;20414;-73
2022/06/22 05:35:20;;;;;;;19.50;5.53;;;16.50;39.60;;;;;;5069140;28;20886;-73
2022/06/22 05:37:50;;;;;;;12.10;5.20;;;16.80;37.70;;;;;;5068959;28;20411;-72
2022/06/22 05:40:18;;;;;;;10.90;4.47;;;17.10;36.30;;;;;;5080736;22;20392;-74
2022/06/22 05:42:44;;;;;;;12.07;5.28;;;17.20;36.10;;;;;;5070379;28;20887;-76
2022/06/22 05:45:17;;;;;;;11.20;4.70;;;17.30;35.00;;;;;;5071026;28;20399;-77
2022/06/22 05:47:45;;;;;;;10.98;4.97;;;17.30;35.20;;;;;;5048737;28;20476;-74
2022/06/22 05:50:26;;;;;;;10.85;5.30;;;17.40;33.90;;;;;;5067214;28;20423;-75
2022/06/22 05:53:13;;;;;;;15.60;5.30;;;17.70;32.50;;;;;;5059879;28;20405;-74
2022/06/22 05:55:58;;;;;;;14.52;4.68;;;17.90;31.00;;;;;;5053407;28;20397;-75
2022/06/22 05:58:37;;;;;;;13.35;4.60;;;17.90;31.30;;;;;;5050482;28;20409;-74
2022/06/22 06:01:11;;;;;;;13.57;5.35;;;17.80;31.30;;;;;;5053080;28;20428;-75
2022/06/22 06:03:51;;;;;;;14.73;5.53;;;17.70;31.60;;;;;;5056550;28;20433;-75
2022/06/22 06:06:26;;;;;;;8.87;4.47;;;17.80;31.70;;;;;;5053868;28;20434;-74
2022/06/22 06:08:59;;;;;;;11.93;5.00;;;17.90;31.50;;;;;;5054977;28;20409;-74
2022/06/22 06:11:39;;;;;;;10.77;4.43;;;18.00;30.90;;;;;;5055189;28;20492;-75
2022/06/22 06:14:11;;;;;;;11.23;4.97;;;18.20;30.30;;;;;;5057053;28;20407;-75
2022/06/22 06:16:48;;;;;;;12.05;4.90;;;18.40;29.30;;;;;;5055600;28;20401;-74
2022/06/22 06:19:19;;;;;;;12.15;5.30;;;18.30;29.00;;;;;;5055607;28;20530;-76
2022/06/22 06:21:46;;;;;;;11.75;5.00;;;18.40;29.20;;;;;;5036597;28;20404;-75
2022/06/22 06:24:24;;;;;;;11.93;4.45;;;18.40;29.60;;;;;;5058312;28;20484;-76
2022/06/22 06:30:16;;;;;;;13.48;5.07;;;18.80;29.70;;;;;;5059666;28;20535;-75
2022/06/22 06:32:59;;;;;;;9.00;5.10;;;18.80;28.70;;;;;;5055779;28;20415;-76
2022/06/22 06:35:25;;;;;;;12.75;5.78;;;19.00;27.30;;;;;;5056104;28;20392;-75
2022/06/22 06:37:59;;;;;;;10.60;4.70;;;19.10;27.10;;;;;;5065533;28;20832;-76
2022/06/22 06:40:31;;;;;;;15.82;5.00;;;19.20;26.90;;;;;;5059973;28;20413;-74
2022/06/22 06:43:22;;;;;;;14.77;4.90;;;19.20;26.60;;;;;;5060198;28;20408;-76
2022/06/22 06:45:49;;;;;;;9.27;4.60;;;19.20;26.80;;;;;;5052217;28;20384;-75
2022/06/22 06:48:19;;;;;;;11.68;4.95;;;19.50;26.70;;;;;;5035990;28;20885;-75
2022/06/22 06:50:49;;;;;;;11.93;5.05;;;19.50;26.50;;;;;;5053355;28;20436;-75
2022/06/22 06:53:39;;;;;;;8.02;4.60;;;19.40;26.60;;;;;;5056734;28;20411;-75
2022/06/22 06:56:27;;;;;;;7.35;3.88;;;19.40;27.30;;;;;;5058499;28;20396;-76
2022/06/22 06:59:00;;;;;;;10.13;4.10;;;19.60;26.20;;;;;;5055381;28;20397;-75
2022/06/22 07:01:32;;;;;;;4.95;3.28;;;19.70;26.70;;;;;;5059855;28;20944;-74
2022/06/22 07:04:07;;;;;;;7.07;3.50;;;19.80;26.60;;;;;;5054715;28;20397;-75
2022/06/22 07:06:34;;;;;;;12.38;4.10;;;19.90;25.50;;;;;;5066202;28;20405;-75
2022/06/22 07:09:03;;;;;;;5.50;3.50;;;20.00;23.70;;;;;;5046991;28;20400;-74
2022/06/22 07:11:58;;;;;;;11.48;3.55;;;20.10;24.30;;;;;;5071997;28;20393;-75
2022/06/22 07:14:38;;;;;;;8.50;3.90;;;20.30;23.90;;;;;;5051613;28;20413;-76
2022/06/22 07:17:10;;;;;;;4.63;3.10;;;20.50;22.90;;;;;;5043356;28;20396;-75
2022/06/22 07:19:53;;;;;;;9.10;3.90;;;20.70;21.10;;;;;;5056665;28;20401;-75
2022/06/22 07:22:21;;;;;;;8.53;3.43;;;20.70;21.40;;;;;;5063953;28;20417;-75
2022/06/22 07:25:06;;;;;;;8.10;3.67;;;20.80;21.90;;;;;;5063660;28;20389;-75
2022/06/22 07:27:44;;;;;;;9.15;3.40;;;20.80;22.90;;;;;;5058721;28;20428;-75
2022/06/22 07:30:26;;;;;;;6.60;3.20;;;20.80;22.20;;;;;;5043878;28;20409;-74
2022/06/22 07:33:07;;;;;;;7.25;3.28;;;20.90;21.90;;;;;;5070806;28;20424;-76
2022/06/22 07:35:51;;;;;;;7.90;3.80;;;21.00;21.40;;;;;;5057356;28;20805;-75
2022/06/22 07:38:33;;;;;;;6.00;3.25;;;21.20;21.40;;;;;;5057350;28;20401;-75
2022/06/22 07:43:44;;;;;;;3.75;3.00;;;21.00;21.60;;;;;;5057489;28;20459;-75
2022/06/22 07:46:15;;;;;;;6.50;3.27;;;21.00;20.60;;;;;;5061771;28;20425;-77
2022/06/22 07:48:45;;;;;;;4.72;2.90;;;21.00;21.40;;;;;;5056343;28;20429;-74
2022/06/22 07:51:22;;;;;;;5.50;3.50;;;21.10;21.10;;;;;;5052781;28;20413;-74
2022/06/22 07:54:16;;;;;;;8.55;3.80;;;21.20;20.70;;;;;;5052680;28;20433;-73
2022/06/22 07:57:20;;;;;;;5.63;3.40;;;21.20;21.50;;;;;;5033143;28;20412;-72
2022/06/22 08:00:14;;;;;;;7.28;3.65;;;21.40;19.60;;;;;;4983347;28;20413;-75
2022/06/22 08:02:54;;;;;;;6.30;3.00;;;21.60;19.80;;;;;;5049181;28;20412;-74
2022/06/22 08:05:26;;;;;;;14.45;3.10;;;21.70;20.10;;;;;;5034641;28;20750;-75
2022/06/22 08:08:30;;;;;;;14.80;3.38;;;21.80;20.00;;;;;;5055235;28;20393;-76
2022/06/22 08:11:08;;;;;;;8.50;3.15;;;21.90;19.10;;;;;;5044498;28;20459;-76
2022/06/22 08:13:51;;;;;;;5.70;3.00;;;21.90;19.20;;;;;;5053828;28;20404;-76
2022/06/22 08:16:30;;;;;;;7.03;3.25;;;22.20;18.20;;;;;;5056641;28;20397;-76
2022/06/22 08:18:55;;;;;;;11.07;3.10;;;22.30;18.00;;;;;;5058221;28;20405;-78
2022/06/22 08:21:22;;;;;;;8.53;3.10;;;22.30;17.40;;;;;;5058404;28;20417;-77
2022/06/22 08:23:48;;;;;;;6.88;2.88;;;22.40;18.00;;;;;;5054735;28;20420;-77
2022/06/22 08:26:20;;;;;;;7.30;3.22;;;22.50;17.60;;;;;;5054561;28;20416;-75
2022/06/22 08:28:47;;;;;;;6.03;2.90;;;22.40;17.20;;;;;;5052139;28;20385;-76
2022/06/22 08:31:13;;;;;;;4.97;2.80;;;22.40;17.00;;;;;;5051704;28;20782;-76
2022/06/22 08:33:46;;;;;;;8.80;3.17;;;22.40;17.90;;;;;;5054229;28;20412;-75
2022/06/22 08:36:26;;;;;;;5.45;2.90;;;22.60;16.80;;;;;;5039435;28;20768;-76
2022/06/22 08:39:19;;;;;;;5.60;2.60;;;22.60;16.30;;;;;;5058746;28;20389;-76
2022/06/22 08:41:55;;;;;;;10.70;3.20;;;22.70;15.50;;;;;;5048060;28;20405;-74
2022/06/22 08:44:23;;;;;;;6.82;2.78;;;22.80;16.60;;;;;;5051792;28;20397;-75
2022/06/22 08:47:08;;;;;;;6.75;2.90;;;22.90;15.80;;;;;;5051844;28;20397;-76
2022/06/22 08:49:58;;;;;;;6.65;3.20;;;22.90;14.90;;;;;;5058215;28;20462;-77
2022/06/22 08:52:40;;;;;;;8.07;3.13;;;22.80;15.20;;;;;;5054412;28;20421;-76
2022/06/22 08:55:11;;;;;;;8.83;3.07;;;22.80;15.20;;;;;;5051915;28;20394;-77
2022/06/22 08:58:25;;;;;;;8.65;3.40;;;22.80;15.80;;;;;;5056377;28;20405;-77
2022/06/22 09:00:57;;;;;;;7.38;2.97;;;22.90;16.10;;;;;;5061397;28;20694;-78
2022/06/22 09:03:31;;;;;;;6.70;2.97;;;22.90;15.20;;;;;;5041459;28;20432;-77
2022/06/22 09:06:02;;;;;;;6.22;2.72;;;23.10;15.70;;;;;;5059846;28;20874;-77
2022/06/22 09:08:56;;;;;;;10.95;3.60;;;23.30;14.90;;;;;;5051088;28;20387;-76
2022/06/22 09:11:56;;;;;;;5.47;3.00;;;23.40;14.60;;;;;;5057229;28;20483;-77
2022/06/22 09:14:36;;;;;;;6.50;3.03;;;23.50;13.90;;;;;;5058775;28;20496;-76
2022/06/22 09:17:23;;;;;;;5.15;2.80;;;23.50;13.40;;;;;;5058699;28;20473;-77
2022/06/22 09:20:17;;;;;;;4.25;2.80;;;23.50;14.20;;;;;;5058166;28;20412;-76
2022/06/22 09:23:14;;;;;;;6.50;2.92;;;23.40;14.30;;;;;;5055373;28;20393;-76
2022/06/22 09:26:34;;;;;;;4.00;2.77;;;23.60;14.00;;;;;;5053094;28;20429;-77
2022/06/22 09:29:13;;;;;;;5.88;2.70;;;23.70;13.70;;;;;;4980006;28;20408;-78
2022/06/22 09:31:51;;;;;;;12.88;2.80;;;23.80;13.80;;;;;;5046542;28;20458;-76
2022/06/22 09:34:32;;;;;;;9.52;3.05;;;23.80;14.20;;;;;;5050430;28;20416;-77
2022/06/22 09:37:34;;;;;;;7.80;2.70;;;24.00;12.50;;;;;;5053125;28;20389;-75
2022/06/22 09:40:19;;;;;;;7.37;3.20;;;24.30;12.30;;;;;;5056179;28;20772;-76
2022/06/22 09:43:14;;;;;;;6.47;3.08;;;24.20;12.60;;;;;;5058883;28;20407;-77
2022/06/22 09:46:00;;;;;;;7.40;2.70;;;24.20;12.70;;;;;;5035313;28;20439;-77
2022/06/22 09:49:05;;;;;;;5.15;2.83;;;24.20;12.30;;;;;;5050898;28;20397;-75
2022/06/22 09:52:04;;;;;;;7.55;2.95;;;24.30;11.80;;;;;;5040406;28;20471;-76
2022/06/22 09:58:10;;;;;;;6.28;3.00;;;24.10;12.30;;;;;;5057815;28;20577;-75
2022/06/22 10:00:46;;;;;;;6.00;3.03;;;24.20;10.70;;;;;;5039891;28;20415;-75
2022/06/22 10:03:23;;;;;;;6.47;2.80;;;24.10;11.80;;;;;;5033746;28;20411;-75
2022/06/22 10:06:17;;;;;;;10.07;3.20;;;24.20;12.40;;;;;;5053464;28;20393;-76
2022/06/22 10:09:06;;;;;;;8.15;2.80;;;24.50;11.40;;;;;;5053193;28;20403;-76
2022/06/22 10:11:50;;;;;;;3.57;2.30;;;24.60;11.10;;;;;;5006135;28;20890;-76
2022/06/22 10:14:53;;;;;;;6.03;3.00;;;24.50;10.60;;;;;;5058650;28;20783;-75
2022/06/22 10:17:47;;;;;;;4.18;2.70;;;24.60;11.10;;;;;;5059246;28;20421;-74
2022/06/22 10:20:18;;;;;;;6.80;2.85;;;24.60;10.00;;;;;;5039484;28;20403;-74
2022/06/22 10:23:11;;;;;;;8.65;3.03;;;24.70;10.30;;;;;;5058585;28;20445;-77
2022/06/22 10:25:56;;;;;;;5.60;2.80;;;24.80;10.00;;;;;;5053226;28;20393;-73
2022/06/22 10:28:40;;;;;;;7.57;2.50;;;24.80;10.30;;;;;;5056322;28;20403;-74
2022/06/22 10:31:11;;;;;;;6.30;3.00;;;24.90;10.20;;;;;;5037800;28;20403;-74
2022/06/22 10:34:12;;;;;;;5.83;2.80;;;24.90;10.00;;;;;;5062123;28;20452;-73
2022/06/22 10:37:04;;;;;;;5.43;3.08;;;24.70;9.70;;;;;;5056110;28;20412;-75
2022/06/22 10:39:52;;;;;;;6.40;2.70;;;24.80;9.50;;;;;;5039302;28;20405;-74
2022/06/22 10:45:49;;;;;;;5.57;2.55;;;24.80;9.60;;;;;;5030809;28;20769;-72
2022/06/22 10:48:15;;;;;;;20.05;3.47;;;24.90;9.50;;;;;;5061126;28;20418;-74
2022/06/22 10:51:05;;;;;;;4.93;3.20;;;25.00;10.00;;;;;;5062008;28;20852;-76
2022/06/22 10:53:49;;;;;;;3.03;2.30;;;25.30;8.80;;;;;;5056077;28;20960;-73
2022/06/22 10:56:40;;;;;;;8.10;2.80;;;25.10;8.20;;;;;;5056769;28;20407;-74
2022/06/22 10:59:39;;;;;;;3.92;2.40;;;25.00;7.80;;;;;;5056408;28;20557;-74
2022/06/22 11:02:41;;;;;;;4.17;2.60;;;25.00;8.90;;;;;;5054787;28;20493;-74
2022/06/22 11:05:31;;;;;;;6.13;2.92;;;25.30;8.20;;;;;;5057806;28;20392;-75
2022/06/22 11:08:10;;;;;;;6.47;2.30;;;25.60;5.80;;;;;;5050552;28;20392;-75
2022/06/22 11:11:00;;;;;;;5.47;2.50;;;25.50;5.80;;;;;;5057800;28;20389;-75
2022/06/22 11:13:43;;;;;;;6.45;2.45;;;25.40;6.30;;;;;;5066772;28;20428;-74
2022/06/22 11:16:27;;;;;;;7.35;2.53;;;25.60;6.00;;;;;;5057043;28;20471;-75
2022/06/22 11:19:01;;;;;;;8.03;3.00;;;25.90;5.80;;;;;;5059591;28;20488;-76
2022/06/22 11:21:56;;;;;;;7.40;2.77;;;26.10;6.30;;;;;;5068569;28;20409;-75
2022/06/22 11:24:53;;;;;;;4.35;2.13;;;26.00;5.10;;;;;;5060161;28;20487;-74
2022/06/22 11:30:51;;;;;;;5.70;2.67;;;26.10;7.10;;;;;;5053179;28;20436;-74
2022/06/22 11:33:31;;;;;;;5.28;2.30;;;26.40;5.40;;;;;;5055921;28;20826;-74
2022/06/22 11:36:27;;;;;;;3.78;2.38;;;26.40;5.70;;;;;;5070774;28;20397;-75
2022/06/22 11:38:58;;;;;;;3.53;2.50;;;26.40;4.00;;;;;;5044027;28;20483;-75
2022/06/22 11:41:30;;;;;;;6.93;2.30;;;26.40;5.40;;;;;;5079461;22;20427;-75
2022/06/22 11:44:07;;;;;;;5.43;2.10;;;26.40;2.70;;;;;;5074891;28;20403;-73
2022/06/22 11:46:39;;;;;;;5.60;2.38;;;26.30;4.10;;;;;;5070294;28;20889;-75
2022/06/22 11:49:38;;;;;;;3.85;2.50;;;26.50;4.30;;;;;;5068704;28;20402;-74
2022/06/22 11:52:12;;;;;;;5.35;2.10;;;26.70;3.40;;;;;;5065728;28;20397;-74
2022/06/22 11:54:53;;;;;;;4.75;2.20;;;26.90;3.80;;;;;;5059775;28;20412;-75
2022/06/22 11:57:50;;;;;;;4.90;2.20;;;26.90;2.50;;;;;;5054735;28;20806;-76
2022/06/22 12:00:54;;;;;;;6.97;2.30;;;26.80;3.00;;;;;;5054244;28;20415;-75
2022/06/22 12:04:06;;;;;;;6.73;2.20;;;26.90;2.90;;;;;;5055581;28;20455;-76
2022/06/22 12:06:46;;;;;;;5.45;2.20;;;27.00;4.50;;;;;;5056792;28;20454;-75
2022/06/22 12:09:27;;;;;;;4.38;2.20;;;27.10;4.10;;;;;;5059351;28;20486;-76
2022/06/22 12:12:25;;;;;;;3.60;2.20;;;27.00;3.90;;;;;;5059487;28;20401;-73
2022/06/22 12:15:16;;;;;;;4.63;2.30;;;26.90;3.30;;;;;;5060130;28;20408;-74
2022/06/22 12:18:00;;;;;;;5.53;2.30;;;26.80;2.50;;;;;;5060091;28;20893;-75
2022/06/22 12:21:02;;;;;;;3.90;2.40;;;26.90;2.90;;;;;;5060157;28;20397;-75
2022/06/22 12:23:46;;;;;;;11.73;6.47;;;26.90;2.60;;;;;;5055232;28;20413;-74
2022/06/22 12:26:30;;;;;;;4.35;2.53;;;26.70;3.20;;;;;;5055999;28;20494;-74
2022/06/22 12:29:08;;;;;;;4.53;2.55;;;26.70;4.50;;;;;;5059924;28;20900;-76
2022/06/22 12:31:52;;;;;;;5.53;2.37;;;26.70;4.40;;;;;;5035546;28;20405;-76
2022/06/22 12:34:31;;;;;;;3.28;2.05;;;26.70;4.30;;;;;;5054242;28;20417;-74
2022/06/22 12:36:59;;;;;;;4.63;2.60;;;26.80;4.20;;;;;;5053615;28;20408;-75
2022/06/22 12:39:33;;;;;;;3.50;2.40;;;26.80;4.10;;;;;;5057231;28;20954;-75
2022/06/22 12:42:08;;;;;;;3.65;2.10;;;26.80;3.80;;;;;;5053891;28;20564;-75
2022/06/22 12:44:46;;;;;;;4.95;1.98;;;26.80;2.40;;;;;;5050382;28;20393;-77
2022/06/22 12:47:53;;;;;;;4.63;2.47;;;27.10;3.10;;;;;;5051212;28;20412;-74
2022/06/22 12:50:53;;;;;;;5.65;2.10;;;27.50;3.20;;;;;;5050972;28;20408;-73
2022/06/22 12:53:27;;;;;;;4.45;2.30;;;27.80;2.50;;;;;;5038027;28;20403;-75
2022/06/22 12:56:08;;;;;;;4.40;2.40;;;27.90;1.60;;;;;;5054146;28;20491;-75
2022/06/22 12:58:46;;;;;;;7.00;2.35;;;28.10;2.50;;;;;;5051958;28;20408;-74
2022/06/22 13:01:13;;;;;;;3.42;2.00;;;28.30;3.00;;;;;;5051129;28;20431;-75
2022/06/22 13:03:55;;;;;;;4.38;2.70;;;28.30;2.20;;;;;;5051477;28;20912;-75
2022/06/22 13:06:22;;;;;;;3.40;2.30;;;28.50;2.10;;;;;;5050709;28;20393;-76
2022/06/22 13:08:48;;;;;;;4.47;2.30;;;28.50;1.80;;;;;;5052696;28;20421;-78
2022/06/22 13:11:20;;;;;;;4.00;2.40;;;28.50;1.00;;;;;;5058989;28;20450;-76
2022/06/22 13:14:07;;;;;;;3.58;2.50;;;28.40;2.10;;;;;;5046586;28;20425;-74
2022/06/22 13:16:54;;;;;;;5.22;2.47;;;28.40;2.10;;;;;;5058618;28;20496;-76
2022/06/22 13:19:33;;;;;;;6.93;2.47;;;28.80;1.50;;;;;;5047132;28;20495;-75
2022/06/22 13:22:11;;;;;;;5.90;2.50;;;29.60;2.60;;;;;;5050946;28;20409;-75
2022/06/22 13:24:50;;;;;;;5.78;2.50;;;30.60;1.00;;;;;;5055215;28;20397;-76
2022/06/22 13:27:34;;;;;;;3.63;2.40;;;31.20;1.00;;;;;;5060108;28;20425;-77
2022/06/22 13:30:15;;;;;;;5.37;2.40;;;31.80;1.00;;;;;;5057454;28;20415;-77
2022/06/22 13:32:49;;;;;;;3.47;2.10;;;32.30;1.00;;;;;;5050721;28;20408;-77
2022/06/22 13:35:29;;;;;;;10.82;2.60;;;32.50;1.00;;;;;;5050843;28;20940;-77
2022/06/22 13:38:15;;;;;;;5.30;2.10;;;32.70;1.00;;;;;;5052119;28;20409;-76
2022/06/22 13:41:06;;;;;;;6.25;2.38;;;32.90;1.00;;;;;;5053803;28;20480;-77
2022/06/22 13:44:09;;;;;;;3.70;2.20;;;32.80;1.00;;;;;;5056473;28;20419;-77
2022/06/22 13:46:57;;;;;;;5.00;2.10;;;33.10;1.00;;;;;;5060764;28;20844;-77
2022/06/22 13:49:36;;;;;;;3.38;2.10;;;33.50;1.00;;;;;;5051959;28;20415;-75
2022/06/22 13:52:28;;;;;;;4.30;2.17;;;33.80;1.00;;;;;;5057366;28;20435;-77
2022/06/22 13:55:59;;;;;;;6.57;2.10;;;33.90;1.00;;;;;;5065278;28;20409;-75
2022/06/22 13:58:45;;;;;;;4.95;2.45;;;33.40;1.00;;;;;;4971899;28;20473;-77
2022/06/22 14:01:19;;;;;;;7.85;2.40;;;33.30;1.00;;;;;;4973139;28;20898;-77
2022/06/22 14:04:07;;;;;;;4.80;2.17;;;33.40;1.00;;;;;;5043126;28;20889;-76
2022/06/22 14:06:57;;;;;;;5.88;2.30;;;33.10;1.00;;;;;;5053786;28;20831;-78
2022/06/22 14:09:36;;;;;;;5.82;2.10;;;33.60;1.00;;;;;;5058538;28;20432;-77
2022/06/22 14:12:05;;;;;;;3.03;1.90;;;33.60;1.00;;;;;;5058302;28;20408;-77